createdAt,value
2023-04-09T00:00:25.752Z,6.80
2023-04-09T00:03:34.567Z,4.83
2023-04-09T00:06:36.295Z,9.27
2023-04-09T00:09:37.858Z,7.63
2023-04-09T00:12:39.553Z,6.23
2023-04-09T00:15:41.189Z,10.20
2023-04-09T00:18:42.780Z,9.67
2023-04-09T00:21:44.383Z,8.43
2023-04-09T00:24:46.168Z,7.20
2023-04-09T00:27:50.483Z,6.68
2023-04-09T00:30:52.150Z,9.85
2023-04-09T00:33:53.681Z,8.70
2023-04-09T00:36:55.353Z,7.17
2023-04-09T00:39:56.848Z,8.50
2023-04-09T00:42:58.418Z,6.88
2023-04-09T00:46:00.944Z,13.48
2023-04-09T00:49:03.165Z,9.10
2023-04-09T00:52:04.872Z,9.82
2023-04-09T00:55:06.803Z,5.10
2023-04-09T00:58:08.407Z,11.95
2023-04-09T01:01:10.006Z,8.70
2023-04-09T01:04:11.558Z,6.32
2023-04-09T01:07:35.841Z,12.38
2023-04-09T01:10:40.445Z,8.60
2023-04-09T01:13:49.375Z,8.07
2023-04-09T01:16:53.594Z,7.28
2023-04-09T01:20:06.720Z,6.97
2023-04-09T01:23:11.227Z,7.35
2023-04-09T01:26:50.467Z,11.10
2023-04-09T01:29:52.045Z,9.55
2023-04-09T01:32:53.666Z,9.75
2023-04-09T01:35:55.385Z,7.68
2023-04-09T01:38:57.116Z,6.60
2023-04-09T01:41:58.808Z,6.93
2023-04-09T01:45:00.501Z,10.07
2023-04-09T01:48:02.104Z,11.90
2023-04-09T01:51:03.914Z,7.37
2023-04-09T01:54:05.741Z,7.83
2023-04-09T01:57:07.268Z,8.93
2023-04-09T02:00:09.485Z,9.65
2023-04-09T02:03:17.157Z,8.15
2023-04-09T02:06:31.160Z,8.85
2023-04-09T02:09:33.273Z,9.43
2023-04-09T02:12:36.511Z,7.68
2023-04-09T02:15:38.042Z,11.10
2023-04-09T02:18:39.648Z,8.60
2023-04-09T02:21:41.214Z,9.25
2023-04-09T02:24:42.732Z,9.02
2023-04-09T02:27:44.258Z,10.68
2023-04-09T02:30:45.881Z,9.35
2023-04-09T02:33:47.540Z,9.75
2023-04-09T02:36:49.099Z,9.27
2023-04-09T02:39:50.700Z,10.52
2023-04-09T02:42:52.818Z,11.65
2023-04-09T02:45:54.549Z,9.50
2023-04-09T02:48:56.192Z,12.30
2023-04-09T02:51:57.719Z,9.63
2023-04-09T02:54:59.298Z,10.73
2023-04-09T02:58:01.079Z,9.13
2023-04-09T03:01:02.680Z,8.47
2023-04-09T03:04:04.343Z,10.50
2023-04-09T03:07:06.001Z,11.23
2023-04-09T03:10:07.881Z,12.98
2023-04-09T03:13:09.497Z,10.55
2023-04-09T03:16:11.177Z,11.25
2023-04-09T03:19:12.758Z,8.47
2023-04-09T03:22:14.379Z,10.40
2023-04-09T03:25:16.122Z,9.38
2023-04-09T03:28:17.746Z,11.57
2023-04-09T03:31:19.425Z,11.77
2023-04-09T03:34:21.016Z,12.43
2023-04-09T03:37:22.678Z,11.45
2023-04-09T03:40:24.349Z,11.63
2023-04-09T03:43:25.871Z,11.23
2023-04-09T03:46:27.465Z,11.30
2023-04-09T03:49:28.964Z,12.20
2023-04-09T03:52:30.509Z,12.82
2023-04-09T03:55:32.020Z,12.52
2023-04-09T03:58:33.753Z,10.38
2023-04-09T04:01:35.388Z,13.80
2023-04-09T04:04:37.039Z,10.30
2023-04-09T04:07:38.636Z,11.55
2023-04-09T04:10:40.287Z,14.07
2023-04-09T04:13:41.810Z,9.20
2023-04-09T04:16:43.436Z,10.30
2023-04-09T04:19:45.233Z,12.18
2023-04-09T04:22:46.787Z,11.00
2023-04-09T04:25:48.301Z,13.63
2023-04-09T04:28:49.920Z,11.15
2023-04-09T04:31:51.647Z,10.83
2023-04-09T04:34:53.355Z,15.85
2023-04-09T04:37:57.602Z,10.63
2023-04-09T04:40:59.376Z,12.10
2023-04-09T04:44:00.953Z,10.40
2023-04-09T04:47:02.470Z,15.35
2023-04-09T04:50:04.325Z,14.38
2023-04-09T04:53:06.069Z,14.70
2023-04-09T04:56:07.865Z,15.97
2023-04-09T04:59:09.416Z,10.87
2023-04-09T05:02:11.081Z,9.93
2023-04-09T05:05:12.675Z,15.32
2023-04-09T05:08:14.438Z,14.43
2023-04-09T05:11:16.959Z,12.85
2023-04-09T05:14:18.946Z,11.73
2023-04-09T05:17:20.586Z,14.10
2023-04-09T05:20:22.216Z,13.60
2023-04-09T05:23:23.827Z,17.50
2023-04-09T05:26:25.441Z,15.73
2023-04-09T05:29:27.012Z,15.10
2023-04-09T05:32:28.524Z,17.65
2023-04-09T05:35:30.116Z,17.90
2023-04-09T05:38:31.706Z,18.80
2023-04-09T05:41:33.666Z,12.88
2023-04-09T05:44:35.562Z,14.88
2023-04-09T05:47:37.143Z,14.87
2023-04-09T05:50:53.373Z,23.85
2023-04-09T05:53:55.862Z,16.40
2023-04-09T05:56:57.386Z,19.65
2023-04-09T05:59:59.005Z,18.15
2023-04-09T06:03:00.648Z,17.83
2023-04-09T06:06:02.253Z,13.00
2023-04-09T06:09:04.534Z,14.85
2023-04-09T06:12:06.069Z,18.23
2023-04-09T06:15:07.735Z,16.80
2023-04-09T06:18:09.368Z,13.98
2023-04-09T06:21:10.980Z,10.18
2023-04-09T06:24:12.772Z,16.20
2023-04-09T06:27:14.328Z,17.60
2023-04-09T06:30:15.914Z,16.10
2023-04-09T06:33:17.492Z,14.85
2023-04-09T06:36:20.168Z,16.60
2023-04-09T06:42:23.117Z,20.00
2023-04-09T06:45:24.745Z,17.98
2023-04-09T06:48:26.320Z,15.73
2023-04-09T06:51:27.914Z,17.35
2023-04-09T06:54:29.526Z,16.55
2023-04-09T06:57:31.179Z,16.85
2023-04-09T07:00:32.741Z,18.60
2023-04-09T07:03:34.577Z,22.08
2023-04-09T07:06:36.285Z,18.92
2023-04-09T07:09:37.802Z,23.47
2023-04-09T07:12:39.372Z,27.58
2023-04-09T07:15:42.496Z,25.10
2023-04-09T07:18:44.489Z,20.30
2023-04-09T07:21:46.010Z,23.43
2023-04-09T07:24:53.423Z,21.05
2023-04-09T07:27:54.940Z,21.52
2023-04-09T07:30:56.552Z,19.88
2023-04-09T07:33:58.194Z,15.55
2023-04-09T07:36:59.809Z,20.38
2023-04-09T07:40:01.680Z,20.60
2023-04-09T07:43:03.878Z,20.98
2023-04-09T07:46:06.981Z,18.80
2023-04-09T07:49:08.569Z,20.67
2023-04-09T07:52:10.133Z,18.80
2023-04-09T07:55:11.673Z,21.20
2023-04-09T07:58:13.224Z,17.80
2023-04-09T08:01:15.308Z,18.23
2023-04-09T08:04:17.300Z,17.02
2023-04-09T08:07:18.938Z,18.60
2023-04-09T08:10:20.604Z,18.67
2023-04-09T08:13:24.300Z,17.08
2023-04-09T08:16:25.947Z,16.85
2023-04-09T08:19:27.514Z,16.17
2023-04-09T08:22:29.120Z,13.80
2023-04-09T08:25:30.962Z,14.38
2023-04-09T08:28:32.660Z,13.98
2023-04-09T08:31:34.503Z,10.65
2023-04-09T08:34:36.120Z,14.30
2023-04-09T08:37:37.724Z,10.90
2023-04-09T08:40:39.416Z,10.50
2023-04-09T08:43:53.109Z,8.75
2023-04-09T08:46:59.772Z,9.23
2023-04-09T08:50:01.357Z,8.98
2023-04-09T08:53:03.777Z,7.55
2023-04-09T08:56:05.815Z,7.93
2023-04-09T08:59:07.386Z,11.57
2023-04-09T09:02:10.759Z,6.85
2023-04-09T09:05:13.579Z,6.43
2023-04-09T09:08:23.691Z,4.68
2023-04-09T09:11:29.040Z,10.98
2023-04-09T09:14:31.844Z,5.63
2023-04-09T09:17:34.397Z,8.27
2023-04-09T09:20:35.987Z,4.50
2023-04-09T09:23:38.387Z,4.15
2023-04-09T09:26:39.983Z,5.22
2023-04-09T09:29:45.170Z,5.85
2023-04-09T09:32:46.835Z,5.03
2023-04-09T09:35:54.122Z,5.40
2023-04-09T09:38:57.325Z,7.18
2023-04-09T09:42:07.518Z,5.47
2023-04-09T09:45:19.371Z,5.68
2023-04-09T09:48:21.986Z,6.57
2023-04-09T09:51:27.250Z,6.90
2023-04-09T09:54:29.424Z,7.93
2023-04-09T10:00:35.722Z,6.97
2023-04-09T10:03:40.533Z,6.78
2023-04-09T10:06:45.218Z,7.53
2023-04-09T10:09:49.835Z,6.30
2023-04-09T10:12:51.555Z,6.32
2023-04-09T10:15:53.434Z,4.90
2023-04-09T10:19:00.480Z,8.02
2023-04-09T10:22:12.249Z,6.03
2023-04-09T10:25:13.898Z,6.43
2023-04-09T10:28:18.603Z,5.38
2023-04-09T10:31:20.295Z,5.32
2023-04-09T10:34:23.597Z,5.80
2023-04-09T10:37:26.161Z,6.88
2023-04-09T10:40:28.929Z,5.55
2023-04-09T10:43:30.637Z,8.40
2023-04-09T10:46:36.550Z,6.07
2023-04-09T10:49:39.309Z,6.28
2023-04-09T10:52:41.772Z,6.30
2023-04-09T10:55:44.526Z,5.97
2023-04-09T10:58:46.170Z,8.73
2023-04-09T11:01:54.789Z,7.00
2023-04-09T11:05:20.227Z,7.53
2023-04-09T11:08:22.324Z,6.10
2023-04-09T11:14:28.408Z,6.70
2023-04-09T11:17:30.235Z,5.75
2023-04-09T11:20:31.970Z,6.55
2023-04-09T11:23:33.880Z,6.68
2023-04-09T11:26:36.184Z,7.18
2023-04-09T11:29:39.204Z,6.50
2023-04-09T11:32:41.019Z,7.88
2023-04-09T11:35:42.858Z,6.43
2023-04-09T11:38:44.436Z,6.07
2023-04-09T11:41:47.073Z,5.40
2023-04-09T11:44:49.888Z,6.97
2023-04-09T11:47:51.670Z,5.72
2023-04-09T11:50:53.756Z,7.00
2023-04-09T11:53:55.359Z,8.60
2023-04-09T11:56:59.235Z,8.20
2023-04-09T12:00:31.092Z,10.93
2023-04-09T12:03:33.681Z,7.83
2023-04-09T12:06:40.316Z,7.15
2023-04-09T12:09:51.195Z,11.45
2023-04-09T12:12:52.852Z,8.45
2023-04-09T12:15:57.505Z,11.38
2023-04-09T12:19:04.393Z,8.10
2023-04-09T12:22:06.344Z,8.25
2023-04-09T12:25:20.285Z,8.27
2023-04-09T12:28:21.803Z,8.45
2023-04-09T12:31:23.476Z,8.20
2023-04-09T12:34:27.303Z,6.05
2023-04-09T12:37:28.970Z,8.35
2023-04-09T12:40:30.540Z,7.50
2023-04-09T12:43:32.126Z,8.00
2023-04-09T12:46:33.854Z,8.73
2023-04-09T12:49:35.518Z,6.95
2023-04-09T12:52:40.196Z,6.05
2023-04-09T12:55:43.010Z,7.43
2023-04-09T12:58:52.725Z,7.45
2023-04-09T13:01:57.331Z,5.57
2023-04-09T13:04:59.010Z,7.78
2023-04-09T13:08:00.563Z,6.32
2023-04-09T13:11:02.094Z,5.00
2023-04-09T13:14:03.756Z,6.40
2023-04-09T13:17:05.732Z,7.13
2023-04-09T13:20:08.267Z,5.18
2023-04-09T13:23:09.956Z,7.68
2023-04-09T13:26:11.668Z,7.30
2023-04-09T13:29:13.350Z,5.63
2023-04-09T13:32:14.932Z,5.90
2023-04-09T13:35:16.582Z,5.75
2023-04-09T13:38:18.506Z,6.72
2023-04-09T13:41:20.195Z,6.38
2023-04-09T13:44:22.167Z,6.43
2023-04-09T13:47:24.066Z,5.90
2023-04-09T13:50:26.508Z,6.45
2023-04-09T13:53:28.122Z,6.85
2023-04-09T13:56:30.867Z,6.53
2023-04-09T13:59:32.579Z,6.65
2023-04-09T14:02:34.377Z,8.07
2023-04-09T14:05:36.153Z,6.47
2023-04-09T14:08:37.696Z,6.70
2023-04-09T14:11:39.311Z,5.15
2023-04-09T14:14:43.289Z,5.15
2023-04-09T14:17:45.174Z,7.22
2023-04-09T14:20:46.958Z,6.72
2023-04-09T14:23:48.658Z,6.53
2023-04-09T14:26:53.670Z,5.63
2023-04-09T14:29:55.657Z,5.88
2023-04-09T14:33:00.123Z,7.22
2023-04-09T14:36:01.762Z,5.57
2023-04-09T14:39:03.398Z,5.97
2023-04-09T14:42:04.996Z,6.13
2023-04-09T14:45:07.171Z,5.15
2023-04-09T14:48:08.764Z,5.60
2023-04-09T14:51:10.938Z,6.68
2023-04-09T14:54:12.567Z,7.47
2023-04-09T14:57:14.149Z,4.30
2023-04-09T15:00:15.927Z,5.60
2023-04-09T15:03:17.904Z,4.55
2023-04-09T15:06:19.921Z,6.28
2023-04-09T15:09:21.545Z,4.03
2023-04-09T15:12:23.026Z,5.95
2023-04-09T15:15:24.700Z,5.68
2023-04-09T15:18:26.384Z,5.28
2023-04-09T15:21:29.656Z,5.45
2023-04-09T15:24:31.428Z,12.05
2023-04-09T15:27:33.094Z,3.97
2023-04-09T15:30:35.942Z,5.80
2023-04-09T15:33:42.400Z,5.88
2023-04-09T15:36:45.530Z,4.40
2023-04-09T15:39:47.214Z,4.07
2023-04-09T15:42:48.818Z,5.03
2023-04-09T15:45:51.039Z,6.22
2023-04-09T15:48:53.025Z,6.82
2023-04-09T15:54:56.517Z,6.28
2023-04-09T15:57:58.036Z,7.10
2023-04-09T16:01:06.674Z,6.45
2023-04-09T16:04:09.416Z,5.40
2023-04-09T16:07:11.182Z,5.57
2023-04-09T16:10:14.679Z,5.45
2023-04-09T16:13:16.682Z,4.80
2023-04-09T16:16:18.730Z,7.20
2023-04-09T16:19:21.297Z,5.75
2023-04-09T16:22:22.853Z,5.47
2023-04-09T16:25:24.568Z,5.60
2023-04-09T16:28:27.041Z,9.10
2023-04-09T16:31:28.612Z,5.40
2023-04-09T16:34:31.952Z,4.70
2023-04-09T16:37:35.057Z,4.68
2023-04-09T16:40:36.624Z,5.43
2023-04-09T16:43:38.205Z,5.25
2023-04-09T16:46:39.853Z,4.47
2023-04-09T16:49:41.452Z,4.68
2023-04-09T16:52:44.101Z,6.75
2023-04-09T16:55:45.756Z,6.32
2023-04-09T16:58:47.904Z,6.07
2023-04-09T17:04:51.615Z,4.13
2023-04-09T17:11:01.934Z,4.60
2023-04-09T17:14:04.194Z,4.68
2023-04-09T17:20:07.643Z,5.82
2023-04-09T17:23:09.157Z,5.35
2023-04-09T17:26:10.985Z,3.50
2023-04-09T17:29:13.191Z,4.70
2023-04-09T17:35:21.254Z,4.53
2023-04-09T17:38:25.096Z,4.90
2023-04-09T17:41:27.778Z,6.03
2023-04-09T17:44:31.360Z,5.90
2023-04-09T17:47:33.182Z,4.82
2023-04-09T17:50:37.532Z,5.00
2023-04-09T17:53:39.155Z,5.72
2023-04-09T17:56:40.865Z,5.20
2023-04-09T17:59:42.480Z,3.83
2023-04-09T18:02:52.902Z,22.30
2023-04-09T18:05:54.854Z,14.75
2023-04-09T18:08:56.494Z,11.70
2023-04-09T18:12:00.043Z,10.80
2023-04-09T18:15:04.432Z,10.48
2023-04-09T18:18:06.071Z,5.13
2023-04-09T18:21:08.132Z,10.27
2023-04-09T18:24:09.705Z,3.80
2023-04-09T18:27:11.264Z,5.63
2023-04-09T18:30:13.004Z,4.13
2023-04-09T18:33:14.684Z,6.55
2023-04-09T18:36:16.405Z,10.77
2023-04-09T18:39:21.060Z,7.20
2023-04-09T18:42:22.635Z,8.82
2023-04-09T18:45:24.270Z,6.28
2023-04-09T18:48:25.993Z,9.50
2023-04-09T18:51:27.904Z,5.00
2023-04-09T18:54:29.440Z,7.40
2023-04-09T18:57:37.096Z,6.27
2023-04-09T19:00:39.752Z,8.38
2023-04-09T19:03:43.109Z,6.53
2023-04-09T19:06:47.461Z,16.02
2023-04-09T19:09:48.968Z,17.15
2023-04-09T19:12:53.784Z,14.73
2023-04-09T19:15:57.049Z,14.45
2023-04-09T19:19:01.197Z,9.23
2023-04-09T19:22:02.874Z,10.57
2023-04-09T19:25:04.909Z,10.63
2023-04-09T19:28:06.446Z,7.95
2023-04-09T19:31:08.100Z,8.07
2023-04-09T19:34:11.159Z,9.27
2023-04-09T19:37:15.075Z,7.88
2023-04-09T19:40:17.993Z,9.13
2023-04-09T19:43:19.520Z,7.30
2023-04-09T19:46:21.207Z,9.37
2023-04-09T19:49:22.841Z,14.23
2023-04-09T19:52:24.899Z,13.67
2023-04-09T19:55:29.311Z,12.15
2023-04-09T19:58:32.701Z,13.23
2023-04-09T20:01:34.420Z,8.43
2023-04-09T20:04:36.197Z,11.43
2023-04-09T20:07:38.495Z,8.30
2023-04-09T20:10:41.661Z,10.52
2023-04-09T20:13:43.289Z,15.73
2023-04-09T20:16:44.885Z,10.87
2023-04-09T20:19:46.627Z,9.20
2023-04-09T20:22:55.709Z,21.58
2023-04-09T20:25:58.084Z,12.65
2023-04-09T20:28:59.600Z,9.48
2023-04-09T20:32:01.339Z,9.93
2023-04-09T20:35:05.067Z,9.57
2023-04-09T20:38:09.377Z,9.63
2023-04-09T20:41:11.344Z,7.32
2023-04-09T20:44:13.045Z,10.23
2023-04-09T20:47:15.564Z,6.80
2023-04-09T20:53:19.167Z,7.82
2023-04-09T20:56:20.734Z,9.53
2023-04-09T20:59:23.792Z,7.80
2023-04-09T21:02:25.654Z,7.25
2023-04-09T21:05:28.779Z,8.70
2023-04-09T21:08:30.610Z,9.52
2023-04-09T21:11:32.147Z,8.65
2023-04-09T21:14:36.690Z,6.55
2023-04-09T21:17:38.296Z,12.75
2023-04-09T21:20:46.186Z,8.43
2023-04-09T21:23:47.793Z,7.68
2023-04-09T21:26:51.982Z,10.82
2023-04-09T21:29:54.575Z,12.05
2023-04-09T21:32:56.455Z,11.50
2023-04-09T21:35:58.106Z,10.38
2023-04-09T21:38:59.744Z,9.60
2023-04-09T21:42:02.754Z,8.77
2023-04-09T21:45:04.727Z,11.60
2023-04-09T21:48:09.267Z,10.52
2023-04-09T21:51:11.458Z,9.38
2023-04-09T21:54:12.995Z,11.02
2023-04-09T21:57:14.811Z,11.23
2023-04-09T22:00:16.488Z,9.73
2023-04-09T22:03:18.265Z,10.07
2023-04-09T22:06:23.119Z,9.27
2023-04-09T22:09:24.776Z,8.63
2023-04-09T22:12:26.617Z,7.47
2023-04-09T22:15:28.284Z,11.82
2023-04-09T22:18:38.855Z,8.30
2023-04-09T22:21:41.391Z,8.13
2023-04-09T22:24:45.583Z,14.20
2023-04-09T22:27:53.563Z,11.95
2023-04-09T22:30:58.534Z,9.77
2023-04-09T22:34:10.074Z,10.55
2023-04-09T22:37:19.155Z,11.13
2023-04-09T22:40:20.758Z,13.23
2023-04-09T22:43:25.453Z,8.70
2023-04-09T22:46:27.021Z,11.10
2023-04-09T22:49:31.582Z,13.75
2023-04-09T22:52:33.258Z,13.85
2023-04-09T22:55:34.829Z,9.55
2023-04-09T22:58:36.547Z,9.88
2023-04-09T23:01:38.207Z,9.13
2023-04-09T23:04:39.848Z,9.90
2023-04-09T23:07:42.689Z,10.70
2023-04-09T23:10:44.291Z,14.68
2023-04-09T23:13:45.896Z,8.02
2023-04-09T23:16:47.405Z,11.93
2023-04-09T23:19:49.110Z,9.27
2023-04-09T23:22:50.887Z,6.00
2023-04-09T23:25:52.596Z,10.73
2023-04-09T23:28:54.349Z,7.93
2023-04-09T23:31:56.106Z,10.10
2023-04-09T23:34:58.964Z,8.13
2023-04-09T23:38:00.865Z,10.40
2023-04-09T23:41:02.416Z,8.07
2023-04-09T23:44:04.097Z,8.52
2023-04-09T23:47:06.580Z,8.27
2023-04-09T23:50:08.682Z,8.93
2023-04-09T23:53:10.963Z,9.93
2023-04-09T23:56:14.138Z,10.13
2023-04-09T23:59:15.793Z,7.93
